Time;durP1;ratioP1;P1;durP2;ratioP2;P2;SDS_P1;SDS_P2;PMS_P1;PMS_P2;Temp;Humidity;BMP_temperature;BMP_pressure;BME280_temperature;BME280_humidity;BME280_pressure;Samples;Min_cycle;Max_cycle;Signal;HPM_P1;HPM_P2
2022/06/08 00:01:37;;;;;;;1.13;0.82;;;;;;;14.16;90.08;100411.06;5012513;28;20053;-84
2022/06/08 00:04:11;;;;;;;1.25;1.20;;;;;;;14.17;90.79;100418.03;5025016;28;20025;-83
2022/06/08 00:06:40;;;;;;;0.95;0.88;;;;;;;14.19;90.42;100413.63;5025586;28;20103;-86
2022/06/08 00:09:07;;;;;;;0.60;0.60;;;;;;;14.20;90.25;100417.97;5026831;28;20129;-86
2022/06/08 00:11:34;;;;;;;2.85;1.30;;;;;;;14.22;90.74;100418.78;5042636;28;20037;-85
2022/06/08 00:14:01;;;;;;;1.67;1.10;;;;;;;14.22;90.75;100427.56;5011921;28;20061;-86
2022/06/08 00:16:27;;;;;;;0.90;0.68;;;;;;;14.20;90.75;100425.88;5014688;28;20057;-86
2022/06/08 00:18:54;;;;;;;1.05;1.05;;;;;;;14.20;92.03;100412.72;5019568;28;20087;-84
2022/06/08 00:21:21;;;;;;;1.27;1.27;;;;;;;14.18;91.71;100410.13;5006035;28;20057;-84
2022/06/08 00:23:48;;;;;;;1.50;1.40;;;;;;;14.16;92.34;100411.94;5010657;28;20077;-86
2022/06/08 00:26:15;;;;;;;1.50;0.90;;;;;;;14.13;92.12;100406.75;5005186;28;20084;-84
2022/06/08 00:28:42;;;;;;;1.30;1.20;;;;;;;14.11;92.98;100403.28;5025446;28;20436;-85
2022/06/08 00:31:08;;;;;;;1.00;0.90;;;;;;;14.10;93.26;100398.94;5027980;28;20546;-85
2022/06/08 00:33:35;;;;;;;1.30;1.30;;;;;;;14.11;93.16;100403.28;5029582;28;20085;-82
2022/06/08 00:36:02;;;;;;;1.38;1.38;;;;;;;14.12;93.45;100401.50;5041968;28;20052;-84
2022/06/08 00:38:29;;;;;;;2.83;1.30;;;;;;;14.09;93.37;100394.56;5002532;28;20133;-85
2022/06/08 00:41:26;;;;;;;1.55;1.48;;;;;;;14.06;93.94;100392.03;5040095;28;20037;-85
2022/06/08 00:43:54;;;;;;;1.70;1.60;;;;;;;14.02;94.38;100400.91;5027597;28;20044;-86
2022/06/08 00:46:20;;;;;;;3.40;1.85;;;;;;;13.97;94.52;100395.75;5034548;28;20056;-85
2022/06/08 00:48:55;;;;;;;1.70;1.60;;;;;;;13.95;94.89;100394.06;5005408;28;20912;-83
2022/06/08 00:51:22;;;;;;;1.70;1.60;;;;;;;13.92;94.91;100400.28;5034607;28;20044;-86
2022/06/08 00:54:43;;;;;;;1.60;1.35;;;;;;;13.91;96.21;100398.59;5016278;28;20041;-86
2022/06/08 00:57:23;;;;;;;1.63;1.30;;;;;;;13.92;95.99;100395.03;5016107;28;20805;-86
2022/06/08 00:59:58;;;;;;;2.00;1.90;;;;;;;13.98;96.00;100386.13;4999280;28;20053;-85
2022/06/08 01:02:25;;;;;;;2.35;1.83;;;;;;;14.06;95.96;100392.88;5007582;28;20049;-86
2022/06/08 01:04:51;;;;;;;1.75;1.75;;;;;;;14.13;95.85;100379.56;5023699;28;20080;-86
2022/06/08 01:07:21;;;;;;;2.55;1.80;;;;;;;14.21;95.30;100378.44;5015493;28;20122;-85
2022/06/08 01:09:49;;;;;;;2.17;2.08;;;;;;;14.30;95.02;100382.59;4997012;28;20102;-84
2022/06/08 01:12:20;;;;;;;3.40;2.08;;;;;;;14.41;94.61;100373.53;5030507;28;20092;-83
2022/06/08 01:14:49;;;;;;;3.20;2.10;;;;;;;14.51;94.41;100377.56;5014746;28;20042;-85
2022/06/08 01:17:21;;;;;;;2.47;2.38;;;;;;;14.58;94.07;100367.75;5045145;28;20045;-83
2022/06/08 01:19:54;;;;;;;2.38;2.28;;;;;;;14.67;93.29;100376.25;5005831;28;21107;-86
2022/06/08 01:22:21;;;;;;;2.65;2.55;;;;;;;14.72;93.31;100371.69;5032251;28;20130;-84
2022/06/08 01:24:51;;;;;;;2.17;1.98;;;;;;;14.76;92.91;100372.47;5010860;28;20053;-84
2022/06/08 01:27:39;;;;;;;2.47;2.38;;;;;;;14.80;92.58;100366.19;5028540;28;20064;-83
2022/06/08 01:30:22;;;;;;;2.50;2.30;;;;;;;14.82;92.68;100359.13;5026984;28;20045;-85
2022/06/08 01:33:48;;;;;;;2.35;2.25;;;;;;;14.85;93.05;100359.00;5030941;28;20053;-84
2022/06/08 01:36:49;;;;;;;2.78;2.30;;;;;;;14.87;92.93;100348.41;5045930;28;20121;-84
2022/06/08 01:40:03;;;;;;;6.03;2.53;;;;;;;14.86;92.82;100355.47;5013544;28;20049;-86
2022/06/08 01:43:07;;;;;;;2.40;2.22;;;;;;;14.85;93.22;100343.19;5030100;28;20569;-85
2022/06/08 01:46:23;;;;;;;3.80;2.60;;;;;;;14.84;93.43;100340.63;5026190;28;20054;-86
2022/06/08 01:49:28;;;;;;;2.47;2.38;;;;;;;14.84;93.02;100343.25;5037536;28;20100;-87
2022/06/08 01:52:22;;;;;;;3.08;2.80;;;;;;;14.84;93.30;100335.34;5018889;28;20206;-89
2022/06/08 01:55:15;;;;;;;4.93;2.55;;;;;;;14.83;93.23;100336.25;5021306;28;20049;-88
2022/06/08 01:58:09;;;;;;;2.70;2.50;;;;;;;14.83;93.59;100330.97;5023513;28;20057;-85
2022/06/08 02:00:47;;;;;;;2.50;2.40;;;;;;;14.85;93.26;100329.19;5021512;28;20048;-86
2022/06/08 02:03:30;;;;;;;2.80;2.42;;;;;;;14.87;93.49;100322.06;5019380;28;20140;-88
2022/06/08 02:06:19;;;;;;;2.38;2.28;;;;;;;14.87;93.39;100312.41;5006262;28;20053;-88
2022/06/08 02:08:59;;;;;;;2.97;2.10;;;;;;;14.88;93.46;100323.78;5018946;28;20155;-88
2022/06/08 02:11:46;;;;;;;2.67;2.53;;;;;;;14.86;93.39;100313.31;5021221;28;20175;-87
2022/06/08 02:14:50;;;;;;;3.25;1.92;;;;;;;14.85;93.58;100322.13;5026679;28;20571;-86
2022/06/08 02:17:30;;;;;;;1.60;1.60;;;;;;;14.85;93.48;100318.63;5021758;28;20061;-88
2022/06/08 02:20:31;;;;;;;2.30;2.10;;;;;;;14.84;93.32;100314.28;5004795;28;20396;-86
2022/06/08 02:23:09;;;;;;;2.80;2.65;;;;;;;14.81;94.03;100315.22;5037240;28;20049;-86
2022/06/08 02:25:44;;;;;;;2.45;2.35;;;;;;;14.77;94.47;100310.97;5041642;28;20025;-87
2022/06/08 02:28:22;;;;;;;3.50;2.58;;;;;;;14.75;94.76;100307.50;5018304;28;20056;-87
2022/06/08 02:30:57;;;;;;;2.20;2.10;;;;;;;14.73;94.92;100309.31;5014393;28;20037;-86
2022/06/08 02:36:21;;;;;;;2.40;2.25;;;;;;;14.68;95.29;100309.47;5023540;28;20037;-86
2022/06/08 02:39:16;;;;;;;2.42;2.33;;;;;;;14.65;95.67;100306.06;5031765;28;20055;-86
2022/06/08 02:41:48;;;;;;;3.75;2.63;;;;;;;14.59;96.10;100304.47;5016835;28;20139;-88
2022/06/08 02:44:25;;;;;;;3.03;2.83;;;;;;;14.58;96.80;100309.78;5019899;28;20059;-87
2022/06/08 02:47:11;;;;;;;3.00;2.80;;;;;;;14.61;96.71;100304.41;5022382;28;20109;-89
2022/06/08 02:49:39;;;;;;;3.53;3.17;;;;;;;14.65;97.04;100306.06;5012414;28;20234;-86
2022/06/08 02:52:23;;;;;;;3.28;2.90;;;;;;;14.65;96.99;100308.72;5027536;28;20440;-86
2022/06/08 02:54:52;;;;;;;2.47;2.28;;;;;;;14.65;97.17;100300.81;5019857;28;20030;-86
2022/06/08 02:57:46;;;;;;;2.97;2.78;;;;;;;14.71;97.25;100308.53;5006444;28;20049;-87
2022/06/08 03:00:23;;;;;;;5.93;3.05;;;;;;;14.79;96.58;100306.50;5019807;28;20123;-86
2022/06/08 03:03:21;;;;;;;3.70;3.45;;;;;;;14.85;97.20;100303.66;5025084;28;20101;-87
2022/06/08 03:05:56;;;;;;;3.08;2.88;;;;;;;14.84;96.88;100304.56;5006223;28;20057;-85
2022/06/08 03:08:32;;;;;;;3.15;2.95;;;;;;;14.85;97.07;100303.66;5042176;28;20045;-88
2022/06/08 03:11:03;;;;;;;3.03;2.72;;;;;;;14.89;96.96;100304.44;4994167;28;20104;-86
2022/06/08 03:13:40;;;;;;;5.68;3.35;;;;;;;14.88;97.90;100305.34;5031743;28;20033;-85
2022/06/08 03:16:10;;;;;;;4.25;3.90;;;;;;;14.88;97.49;100308.84;5050574;28;20133;-87
2022/06/08 03:18:37;;;;;;;3.33;3.13;;;;;;;14.88;97.92;100302.72;5023766;28;20045;-89
2022/06/08 03:21:06;;;;;;;3.53;2.90;;;;;;;14.89;97.65;100307.94;5023531;28;20041;-86
2022/06/08 03:23:34;;;;;;;4.13;3.30;;;;;;;14.86;98.46;100315.06;5013866;28;20129;-87
2022/06/08 03:26:02;;;;;;;5.72;4.15;;;;;;;14.82;98.36;100310.81;5029876;28;20060;-86
2022/06/08 03:28:28;;;;;;;3.97;3.65;;;;;;;14.77;98.63;100316.25;5023878;28;20045;-86
2022/06/08 03:30:55;;;;;;;5.25;3.92;;;;;;;14.75;99.14;100314.56;5024919;28;20044;-86
2022/06/08 03:33:21;;;;;;;4.15;3.83;;;;;;;14.71;99.26;100317.28;5037101;28;20076;-87
2022/06/08 03:35:48;;;;;;;7.80;5.10;;;;;;;14.74;99.72;100318.97;5017588;28;20964;-87
2022/06/08 03:38:15;;;;;;;4.05;3.65;;;;;;;14.78;99.28;100317.94;5032500;28;20049;-84
2022/06/08 03:40:41;;;;;;;3.92;3.58;;;;;;;14.86;98.96;100317.69;5020296;28;20125;-87
2022/06/08 03:43:08;;;;;;;2.42;2.28;;;;;;;14.91;98.49;100322.84;5021041;28;20085;-87
2022/06/08 03:45:46;;;;;;;3.22;2.97;;;;;;;14.95;98.06;100317.41;5019007;28;20426;-87
2022/06/08 03:48:13;;;;;;;3.55;3.35;;;;;;;15.00;98.06;100322.53;5017331;28;20049;-88
2022/06/08 03:50:44;;;;;;;3.92;3.20;;;;;;;15.06;97.49;100319.72;5015768;28;20712;-87
2022/06/08 03:53:19;;;;;;;4.53;3.38;;;;;;;15.09;97.25;100321.38;5006943;28;20069;-89
2022/06/08 03:55:51;;;;;;;3.10;2.90;;;;;;;15.10;96.77;100316.03;5019135;28;20053;-88
2022/06/08 03:58:20;;;;;;;4.25;3.83;;;;;;;15.08;97.04;100319.66;5007808;28;20065;-87
2022/06/08 04:00:47;;;;;;;4.10;3.75;;;;;;;15.01;97.49;100314.56;5014315;28;20455;-87
2022/06/08 04:03:15;;;;;;;5.50;4.70;;;;;;;14.95;97.86;100313.91;5006869;28;20081;-87
2022/06/08 04:05:41;;;;;;;4.00;3.58;;;;;;;14.88;98.30;100313.25;5041067;28;20050;-88
2022/06/08 04:08:09;;;;;;;4.47;4.18;;;;;;;14.85;98.88;100308.09;5034509;28;20144;-88
2022/06/08 04:10:40;;;;;;;3.88;3.58;;;;;;;14.85;99.03;100314.22;5002546;28;20153;-87
2022/06/08 04:13:07;;;;;;;4.47;4.07;;;;;;;14.95;98.85;100316.53;5036229;28;20061;-90
2022/06/08 04:15:43;;;;;;;4.10;3.70;;;;;;;15.07;98.44;100324.06;5006802;28;20484;-89
2022/06/08 04:18:18;;;;;;;4.97;4.50;;;;;;;15.22;97.53;100309.50;4989114;28;20550;-86
2022/06/08 04:20:49;;;;;;;5.88;5.38;;;;;;;15.37;96.78;100318.69;5002610;28;20121;-86
2022/06/08 04:23:18;;;;;;;5.22;4.82;;;;;;;15.45;96.23;100321.91;5006180;28;20049;-87
2022/06/08 04:25:49;;;;;;;4.15;3.75;;;;;;;15.54;95.55;100318.09;5017973;28;20042;-88
2022/06/08 04:28:17;;;;;;;4.22;3.90;;;;;;;15.63;95.18;100319.53;5017813;28;20103;-86
2022/06/08 04:30:43;;;;;;;5.80;4.10;;;;;;;15.73;94.66;100310.38;5041690;28;20041;-87
2022/06/08 04:33:13;;;;;;;4.00;3.70;;;;;;;15.81;94.19;100316.28;5020872;28;20117;-86
2022/06/08 04:35:40;;;;;;;4.50;4.15;;;;;;;15.86;93.75;100319.59;5005149;28;20041;-87
2022/06/08 04:38:07;;;;;;;5.20;4.72;;;;;;;15.92;93.74;100325.56;5038591;28;20411;-85
2022/06/08 04:40:35;;;;;;;5.43;5.03;;;;;;;15.97;93.06;100320.97;5020564;28;20092;-89
2022/06/08 04:43:15;;;;;;;6.50;4.95;;;;;;;15.98;93.25;100320.06;5015263;28;20046;-86
2022/06/08 04:45:47;;;;;;;6.30;5.60;;;;;;;15.99;92.82;100325.28;5012216;28;20585;-86
2022/06/08 04:48:15;;;;;;;4.93;4.57;;;;;;;15.97;93.34;100315.69;5025336;28;20531;-87
2022/06/08 04:50:42;;;;;;;5.40;5.00;;;;;;;15.99;93.14;100316.53;5011531;28;20049;-87
2022/06/08 04:53:09;;;;;;;5.90;5.40;;;;;;;15.99;93.15;100320.00;5026479;28;20057;-87
2022/06/08 04:55:36;;;;;;;6.63;6.03;;;;;;;15.98;93.06;100315.66;5022611;28;20053;-87
2022/06/08 04:58:06;;;;;;;7.47;6.45;;;;;;;15.95;93.91;100307.84;5023145;28;20067;-87
2022/06/08 05:00:33;;;;;;;8.25;6.47;;;;;;;15.94;93.94;100313.19;5023069;28;20096;-86
2022/06/08 05:03:01;;;;;;;7.38;6.68;;;;;;;15.92;93.75;100302.69;5024391;28;20042;-89
2022/06/08 05:05:40;;;;;;;7.85;7.07;;;;;;;15.90;94.11;100293.94;5024834;28;20042;-86
2022/06/08 05:08:08;;;;;;;8.40;7.55;;;;;;;15.90;94.20;100306.31;5023887;28;20411;-87
2022/06/08 05:10:36;;;;;;;8.88;7.15;;;;;;;15.88;94.33;100296.66;5008958;28;20111;-87
2022/06/08 05:13:07;;;;;;;8.98;7.70;;;;;;;15.93;94.29;100299.13;5009567;28;20125;-86
2022/06/08 05:15:38;;;;;;;8.55;7.70;;;;;;;16.06;93.90;100303.94;5011179;28;20046;-87
2022/06/08 05:18:06;;;;;;;8.60;7.70;;;;;;;16.14;93.43;100304.50;5024841;28;20045;-87
2022/06/08 05:20:35;;;;;;;8.40;7.43;;;;;;;16.24;92.91;100305.88;5021280;28;20080;-86
2022/06/08 05:23:04;;;;;;;8.25;7.43;;;;;;;16.35;92.17;100292.28;5009091;28;21175;-87
2022/06/08 05:25:37;;;;;;;11.63;8.85;;;;;;;16.42;91.69;100299.03;5041379;28;20046;-86
2022/06/08 05:28:07;;;;;;;10.25;9.27;;;;;;;16.49;91.52;100291.72;5029906;28;20068;-87
2022/06/08 05:30:35;;;;;;;10.60;9.57;;;;;;;16.58;90.94;100288.72;5013428;28;20113;-86
2022/06/08 05:33:03;;;;;;;10.40;9.27;;;;;;;16.70;90.48;100300.59;5025749;28;20041;-86
2022/06/08 05:35:30;;;;;;;9.63;8.35;;;;;;;16.83;89.84;100299.19;5011394;28;20049;-86
2022/06/08 05:37:57;;;;;;;8.85;7.82;;;;;;;16.93;89.36;100310.25;5020565;28;20595;-86
2022/06/08 05:40:31;;;;;;;9.93;8.85;;;;;;;16.98;88.91;100310.94;5009172;28;20482;-86
2022/06/08 05:42:59;;;;;;;9.73;8.80;;;;;;;16.96;88.57;100311.91;5027488;28;20504;-88
2022/06/08 05:45:32;;;;;;;9.50;8.55;;;;;;;16.89;88.69;100316.56;5031596;28;20473;-90
2022/06/08 05:48:01;;;;;;;8.75;7.95;;;;;;;16.83;89.14;100316.81;5026688;28;20064;-86
2022/06/08 05:51:30;;;;;;;8.75;7.93;;;;;;;16.80;89.47;100311.66;5005037;28;20034;-85
2022/06/08 05:53:59;;;;;;;8.85;7.93;;;;;;;16.82;89.57;100310.66;5016119;28;20036;-89
2022/06/08 05:56:26;;;;;;;10.18;8.90;;;;;;;16.87;89.24;100313.13;5027559;28;20060;-89
2022/06/08 05:58:53;;;;;;;9.30;8.40;;;;;;;16.93;89.03;100314.69;5012411;28;20052;-86
2022/06/08 06:01:20;;;;;;;9.10;8.30;;;;;;;16.96;88.74;100318.09;5021986;28;20060;-88
2022/06/08 06:03:46;;;;;;;9.63;8.43;;;;;;;16.93;88.44;100315.53;5026002;28;20049;-89
2022/06/08 06:06:13;;;;;;;8.07;7.28;;;;;;;16.93;88.84;100310.25;5025088;28;20049;-90
2022/06/08 06:08:41;;;;;;;7.88;6.38;;;;;;;16.93;88.65;100306.78;5042085;28;20060;-87
2022/06/08 06:11:07;;;;;;;9.68;6.97;;;;;;;16.97;88.79;100311.88;5037334;28;20049;-80
2022/06/08 06:13:34;;;;;;;6.47;5.97;;;;;;;17.07;88.56;100316.78;5015700;28;20057;-82
2022/06/08 06:16:01;;;;;;;6.90;5.90;;;;;;;17.19;87.66;100316.25;5020096;28;20069;-82
2022/06/08 06:18:27;;;;;;;6.85;6.22;;;;;;;17.23;87.31;100309.06;5025193;28;20042;-84
2022/06/08 06:20:54;;;;;;;5.85;5.35;;;;;;;17.29;87.08;100304.38;5016515;28;20051;-82
2022/06/08 06:23:21;;;;;;;4.95;4.55;;;;;;;17.31;87.09;100310.47;5003618;28;20049;-82
2022/06/08 06:25:48;;;;;;;8.52;5.70;;;;;;;17.39;86.66;100310.13;5021234;28;20037;-83
2022/06/08 06:28:15;;;;;;;4.70;4.30;;;;;;;17.47;86.72;100307.13;4998774;28;20468;-84
2022/06/08 06:30:42;;;;;;;5.32;4.45;;;;;;;17.58;86.01;100311.97;5025035;28;20113;-82
2022/06/08 06:33:14;;;;;;;5.57;5.10;;;;;;;17.72;85.22;100314.88;5030315;28;20053;-83
2022/06/08 06:35:43;;;;;;;4.78;4.30;;;;;;;17.81;84.65;100313.63;5035505;28;20176;-81
2022/06/08 06:38:11;;;;;;;4.78;3.42;;;;;;;17.91;84.15;100317.53;5019091;28;20056;-82
2022/06/08 06:40:38;;;;;;;5.30;4.90;;;;;;;17.99;83.67;100315.47;5016185;28;20057;-82
2022/06/08 06:43:05;;;;;;;6.80;4.80;;;;;;;17.99;82.68;100311.94;5014706;28;20041;-81
2022/06/08 06:45:32;;;;;;;4.85;4.32;;;;;;;17.99;83.00;100318.13;5003202;28;20076;-81
2022/06/08 06:47:59;;;;;;;7.47;5.00;;;;;;;18.03;82.57;100321.50;5036600;28;20050;-81
2022/06/08 06:50:26;;;;;;;5.75;5.18;;;;;;;18.06;81.93;100321.34;5016648;28;20119;-84
2022/06/08 06:52:53;;;;;;;5.45;4.47;;;;;;;18.14;81.85;100318.34;5019725;28;20046;-81
2022/06/08 06:55:26;;;;;;;5.10;4.68;;;;;;;18.26;80.78;100311.63;5012256;28;20045;-81
2022/06/08 06:57:54;;;;;;;;;;;;;;;18.37;78.79;100316.41;5015777;28;21291;-81
2022/06/08 07:00:22;;;;;;;5.07;4.68;;;;;;;18.39;79.20;100312.75;5020158;28;20454;-81
2022/06/08 07:02:48;;;;;;;4.97;4.57;;;;;;;18.54;78.87;100308.53;5017618;28;20431;-82
2022/06/08 07:05:23;;;;;;;5.78;5.28;;;;;;;18.82;76.49;100323.94;5007909;28;20136;-82
2022/06/08 07:07:50;;;;;;;5.32;4.78;;;;;;;19.07;75.52;100319.28;5013601;28;20855;-83
2022/06/08 07:10:18;;;;;;;5.18;4.72;;;;;;;19.26;74.33;100321.88;5020684;28;20140;-81
2022/06/08 07:12:51;;;;;;;4.43;4.10;;;;;;;19.58;73.46;100319.34;5022291;28;20060;-81
2022/06/08 07:15:22;;;;;;;7.55;3.55;;;;;;;19.91;72.44;100307.94;5011134;28;20046;-83
2022/06/08 07:17:49;;;;;;;4.78;4.47;;;;;;;20.05;70.89;100301.84;5017124;28;20096;-82
2022/06/08 07:20:18;;;;;;;4.80;4.40;;;;;;;20.04;70.38;100289.50;5014392;28;20057;-81
2022/06/08 07:22:46;;;;;;;5.10;4.70;;;;;;;19.76;70.86;100286.50;5033027;28;20064;-81
2022/06/08 07:25:15;;;;;;;4.85;4.32;;;;;;;19.64;71.64;100284.53;5032563;28;20037;-82
2022/06/08 07:27:45;;;;;;;4.72;4.28;;;;;;;19.75;71.73;100279.50;5015760;28;20724;-81
2022/06/08 07:30:14;;;;;;;4.88;4.55;;;;;;;19.94;68.77;100282.03;5002542;28;20050;-82
2022/06/08 07:32:43;;;;;;;4.93;4.53;;;;;;;20.36;68.04;100268.28;5003227;28;20429;-83
2022/06/08 07:35:12;;;;;;;3.95;3.58;;;;;;;20.95;66.53;100269.34;4998045;28;20153;-84
2022/06/08 07:37:41;;;;;;;3.88;3.45;;;;;;;21.61;63.94;100259.22;5018181;28;20607;-84
2022/06/08 07:40:09;;;;;;;4.28;3.88;;;;;;;22.04;62.01;100260.19;5019416;28;20404;-85
2022/06/08 07:42:37;;;;;;;3.55;3.35;;;;;;;22.34;58.27;100261.84;5004848;28;20041;-86
2022/06/08 07:45:12;;;;;;;3.70;3.15;;;;;;;22.48;56.54;100256.50;5011948;28;20065;-87
2022/06/08 07:50:29;;;;;;;3.63;2.88;;;;;;;23.01;54.34;100261.03;5020180;28;20041;-84
2022/06/08 07:52:57;;;;;;;6.93;2.95;;;;;;;22.61;53.00;100245.88;5032497;28;20046;-84
2022/06/08 07:55:26;;;;;;;4.78;2.72;;;;;;;22.17;54.81;100241.59;5005365;28;20052;-86
2022/06/08 07:57:56;;;;;;;3.95;2.05;;;;;;;22.28;55.04;100245.28;5007068;28;20128;-86
2022/06/08 08:00:23;;;;;;;1.88;1.77;;;;;;;22.55;52.12;100236.44;5019525;28;20116;-86
2022/06/08 08:02:50;;;;;;;2.28;2.00;;;;;;;22.67;51.43;100237.47;5001539;28;20045;-85
2022/06/08 08:05:18;;;;;;;1.60;1.58;;;;;;;22.54;52.19;100236.56;5023987;28;20057;-84
2022/06/08 08:07:44;;;;;;;1.98;1.88;;;;;;;22.10;52.27;100233.97;5042393;28;20382;-85
2022/06/08 08:10:18;;;;;;;2.10;1.67;;;;;;;21.91;51.78;100236.94;5021821;28;20038;-85
2022/06/08 08:12:46;;;;;;;1.92;1.92;;;;;;;21.91;51.73;100236.09;5024603;28;20057;-85
2022/06/08 08:15:14;;;;;;;2.35;2.08;;;;;;;21.84;51.49;100234.78;5025063;28;20120;-87
2022/06/08 08:17:41;;;;;;;2.53;1.50;;;;;;;21.80;52.03;100228.81;5003811;28;20069;-86
2022/06/08 08:20:14;;;;;;;2.20;2.00;;;;;;;21.74;52.26;100231.84;5021102;28;20492;-84
2022/06/08 08:22:41;;;;;;;2.90;1.70;;;;;;;21.44;52.85;100230.94;5022341;28;20041;-85
2022/06/08 08:25:11;;;;;;;2.15;1.95;;;;;;;21.41;53.28;100230.28;5025568;28;20049;-85
2022/06/08 08:27:38;;;;;;;1.20;1.20;;;;;;;21.35;53.57;100231.50;5027330;28;20069;-86
2022/06/08 08:30:13;;;;;;;2.47;2.00;;;;;;;21.80;53.21;100221.66;5040951;28;20136;-87
2022/06/08 08:32:40;;;;;;;1.55;1.52;;;;;;;22.62;51.59;100223.59;5009435;28;20696;-84
2022/06/08 08:35:08;;;;;;;3.58;1.88;;;;;;;23.17;50.23;100228.84;5002308;28;20037;-85
2022/06/08 08:37:35;;;;;;;3.10;1.60;;;;;;;23.68;48.98;100209.28;5008744;28;20049;-85
2022/06/08 08:40:08;;;;;;;1.80;1.70;;;;;;;24.09;47.58;100214.34;5002013;28;20056;-85
2022/06/08 08:42:36;;;;;;;1.85;1.75;;;;;;;23.98;47.98;100213.44;5005453;28;20073;-85
2022/06/08 08:45:14;;;;;;;2.60;1.92;;;;;;;23.47;48.50;100204.50;5021040;28;20053;-84
2022/06/08 08:48:06;;;;;;;2.08;1.95;;;;;;;23.25;49.90;100205.97;5008653;28;20077;-85
2022/06/08 08:50:46;;;;;;;1.70;1.60;;;;;;;23.27;49.03;100204.06;5007360;28;20132;-87
2022/06/08 08:53:29;;;;;;;1.63;1.52;;;;;;;23.05;49.10;100198.44;5007557;28;20080;-84
2022/06/08 08:56:11;;;;;;;2.95;1.40;;;;;;;23.39;48.46;100193.50;5008058;28;20042;-83
2022/06/08 08:58:44;;;;;;;1.50;1.40;;;;;;;23.43;48.23;100193.16;5009313;28;20385;-85
2022/06/08 09:01:30;;;;;;;;;;;;;;;23.74;47.03;100193.66;5041270;28;20489;-86
2022/06/08 09:04:21;;;;;;;1.80;1.70;;;;;;;24.23;46.47;100183.06;5022940;28;19932;-86
2022/06/08 09:06:48;;;;;;;1.38;1.27;;;;;;;24.46;46.23;100184.03;5013831;28;20059;-86
2022/06/08 09:09:30;;;;;;;1.92;1.83;;;;;;;24.38;45.64;100181.91;5016515;28;20054;-86
2022/06/08 09:11:58;;;;;;;1.55;1.45;;;;;;;24.05;46.30;100183.47;5005227;28;20049;-87
2022/06/08 09:14:46;;;;;;;1.35;1.25;;;;;;;24.13;46.30;100182.03;5024866;28;20057;-85
2022/06/08 09:17:21;;;;;;;3.13;1.60;;;;;;;24.40;45.12;100179.13;5004232;28;20046;-86
2022/06/08 09:19:52;;;;;;;1.85;1.75;;;;;;;24.70;45.31;100170.63;5022423;28;20111;-86
2022/06/08 09:22:31;;;;;;;1.90;1.80;;;;;;;25.35;43.96;100165.66;5021225;28;21109;-86
2022/06/08 09:25:07;;;;;;;2.65;1.60;;;;;;;26.16;42.13;100162.78;5001282;28;20056;-85
2022/06/08 09:27:49;;;;;;;2.55;1.58;;;;;;;25.69;42.35;100165.66;5024697;28;20037;-84
2022/06/08 09:30:51;;;;;;;1.60;1.50;;;;;;;24.98;43.76;100163.19;5009218;28;20053;-86
2022/06/08 09:33:27;;;;;;;2.22;2.03;;;;;;;24.64;43.94;100157.75;5006130;28;20054;-85
2022/06/08 09:36:02;;;;;;;1.45;1.23;;;;;;;24.52;44.66;100159.50;5034427;28;20050;-84
2022/06/08 09:38:34;;;;;;;2.35;2.25;;;;;;;24.43;44.40;100154.81;5006837;28;20034;-81
2022/06/08 09:41:08;;;;;;;7.03;2.55;;;;;;;23.84;45.26;100153.75;5009272;28;20057;-86
2022/06/08 09:43:56;;;;;;;3.05;2.17;;;;;;;24.12;44.60;100149.09;5028060;28;20049;-85
2022/06/08 09:53:12;;;;;;;2.50;1.65;;;;;;;28.02;36.96;100142.38;5009200;28;20092;-85
2022/06/08 09:56:13;;;;;;;4.43;1.75;;;;;;;29.45;35.19;100145.34;5039470;28;20041;-86
2022/06/08 09:59:14;;;;;;;1.40;1.20;;;;;;;31.00;32.57;100139.78;5024617;28;20147;-85
2022/06/08 10:01:54;;;;;;;2.13;1.42;;;;;;;31.80;31.13;100135.13;5022243;28;20046;-84
2022/06/08 10:04:38;;;;;;;1.45;1.35;;;;;;;30.94;32.12;100136.88;5019434;28;20167;-86
2022/06/08 10:07:20;;;;;;;1.25;1.17;;;;;;;30.40;32.82;100136.94;5006202;28;20133;-85
2022/06/08 10:10:33;;;;;;;2.05;1.20;;;;;;;30.40;33.04;100131.53;5035181;28;20041;-86
2022/06/08 10:13:05;;;;;;;0.77;0.77;;;;;;;32.04;30.72;100128.91;5017916;28;20053;-85
2022/06/08 10:15:53;;;;;;;2.53;1.40;;;;;;;33.12;27.84;100132.47;5011798;28;20049;-85
2022/06/08 10:18:26;;;;;;;1.00;1.00;;;;;;;33.25;28.57;100130.03;5017929;28;20404;-83
2022/06/08 10:21:03;;;;;;;1.55;1.45;;;;;;;33.42;27.53;100128.13;5023918;28;20049;-86
2022/06/08 10:23:54;;;;;;;0.90;0.90;;;;;;;33.88;26.62;100126.56;5006579;28;20049;-86
2022/06/08 10:26:43;;;;;;;0.70;0.70;;;;;;;33.07;27.47;100122.13;5033491;28;20056;-85
2022/06/08 10:29:28;;;;;;;1.08;1.08;;;;;;;32.36;28.50;100119.16;5018642;28;20076;-86
2022/06/08 10:32:36;;;;;;;1.13;1.10;;;;;;;33.27;27.22;100127.16;5004394;28;20041;-85
2022/06/08 10:35:31;;;;;;;1.50;1.35;;;;;;;32.99;27.91;100131.13;5024306;28;20469;-85
2022/06/08 10:37:59;;;;;;;0.73;0.65;;;;;;;33.78;27.38;100124.91;5016489;28;20054;-84
2022/06/08 10:40:59;;;;;;;1.08;1.08;;;;;;;34.09;25.59;100118.63;5007364;28;20082;-85
2022/06/08 10:43:36;;;;;;;1.20;1.20;;;;;;;34.03;25.91;100118.47;5019371;28;20163;-85
2022/06/08 10:46:47;;;;;;;1.35;0.60;;;;;;;33.68;26.53;100127.00;5019525;28;20123;-86
2022/06/08 10:49:45;;;;;;;2.30;0.77;;;;;;;31.58;28.57;100123.03;5006184;28;20080;-86
2022/06/08 10:52:19;;;;;;;0.75;0.70;;;;;;;29.38;31.60;100120.81;5034765;28;20056;-86
2022/06/08 10:54:55;;;;;;;0.70;0.70;;;;;;;27.98;33.64;100130.19;5017370;28;20041;-87
2022/06/08 10:57:41;;;;;;;2.22;1.50;;;;;;;27.80;33.82;100127.31;5033307;28;20339;-85
2022/06/08 11:00:21;;;;;;;0.85;0.85;;;;;;;29.32;30.91;100118.72;5021839;28;20136;-85
2022/06/08 11:03:01;;;;;;;1.15;1.15;;;;;;;29.99;30.82;100113.13;5019911;28;20060;-86
2022/06/08 11:05:48;;;;;;;1.17;1.10;;;;;;;29.40;30.82;100124.22;5021957;28;20064;-86
2022/06/08 11:08:21;;;;;;;1.02;1.02;;;;;;;28.15;32.74;100125.16;5014963;28;20881;-84
2022/06/08 11:10:53;;;;;;;1.55;1.55;;;;;;;27.27;34.57;100124.84;5016610;28;20083;-85
2022/06/08 11:13:23;;;;;;;2.50;1.13;;;;;;;26.26;36.49;100122.66;5023140;28;20057;-84
2022/06/08 11:16:28;;;;;;;1.45;1.42;;;;;;;25.54;38.02;100115.97;5034203;28;20053;-86
2022/06/08 11:19:11;;;;;;;2.28;1.35;;;;;;;25.07;39.06;100118.75;5016970;28;20044;-85
2022/06/08 11:21:51;;;;;;;1.20;1.20;;;;;;;24.90;39.38;100112.03;5021914;28;20045;-85
2022/06/08 11:24:38;;;;;;;1.13;1.13;;;;;;;24.80;39.39;100111.91;5037441;28;20037;-88
2022/06/08 11:27:11;;;;;;;1.58;1.58;;;;;;;24.64;39.92;100116.72;5018365;28;20051;-84
2022/06/08 11:29:50;;;;;;;2.78;1.45;;;;;;;24.35;40.38;100109.91;5017258;28;20048;-85
2022/06/08 11:32:56;;;;;;;1.15;1.10;;;;;;;24.28;41.00;100112.19;5019793;28;20053;-84
2022/06/08 11:35:50;;;;;;;2.63;1.40;;;;;;;24.55;40.15;100108.41;5004837;28;20045;-86
2022/06/08 11:38:21;;;;;;;1.15;1.02;;;;;;;24.75;39.71;100096.19;4997216;28;20050;-87
2022/06/08 11:40:48;;;;;;;1.38;1.27;;;;;;;24.50;40.41;100104.38;5032593;28;20153;-86
2022/06/08 11:43:25;;;;;;;1.77;1.52;;;;;;;24.58;40.28;100101.97;5003339;28;20077;-86
2022/06/08 11:45:58;;;;;;;1.05;0.98;;;;;;;24.92;39.15;100097.53;5027993;28;20060;-86
2022/06/08 11:48:32;;;;;;;1.30;1.20;;;;;;;26.76;37.13;100092.50;5033396;28;20054;-86
2022/06/08 11:51:04;;;;;;;1.05;1.05;;;;;;;29.88;31.20;100081.78;5013694;28;20113;-86
2022/06/08 11:53:40;;;;;;;1.95;1.17;;;;;;;32.42;28.36;100074.28;5002923;28;20049;-84
2022/06/08 11:56:22;;;;;;;0.93;0.90;;;;;;;34.58;24.41;100065.75;5000204;28;20045;-86
2022/06/08 11:58:54;;;;;;;0.70;0.70;;;;;;;36.16;23.93;100065.41;5018430;28;20041;-86
2022/06/08 12:01:32;;;;;;;1.40;0.85;;;;;;;36.88;22.28;100060.78;5003545;28;20137;-85
2022/06/08 12:04:07;;;;;;;2.15;0.98;;;;;;;37.45;22.41;100065.25;5016394;28;20046;-86
2022/06/08 12:06:40;;;;;;;2.38;0.77;;;;;;;36.34;23.39;100062.25;5032953;28;20394;-85
2022/06/08 12:09:15;;;;;;;0.90;0.90;;;;;;;34.41;24.90;100062.34;5004367;28;20050;-86
2022/06/08 12:12:04;;;;;;;0.90;0.90;;;;;;;32.37;27.36;100058.53;5021514;28;20049;-87
2022/06/08 12:14:38;;;;;;;1.15;0.80;;;;;;;30.43;29.19;100058.31;5018456;28;20769;-84
2022/06/08 12:17:14;;;;;;;1.02;0.93;;;;;;;29.13;31.14;100053.09;5005444;28;20441;-85